KDLN/DLN METAR and TAF weather

Enter ICAO airport designator
Station Type Date Time Source
KDLN METAR 2019/04/25 21:53 UTC NOAA

KDLN 252153Z AUTO VRB03KT 10SM CLR 16/M07 A3007 RMK AO2 SLP165 T01611072


Station Type Date Time Source
KDLN Decoded METAR 2019/04/25 21:53 UTC NOAA

DILLON AIRPORT, MT, United States (KDLN) 45-15N 112-33W 1591M
Apr 25, 2019 - 05:53 PM EDT / 2019.04.25 2153 UTC
Wind: Variable at 3 MPH (3 KT):0
Visibility: 10 mile(s):0
Sky conditions: clear
Temperature: 61.0 F (16.1 C)
Dew Point: 19.0 F (-7.2 C)
Relative Humidity: 19%
Pressure (altimeter): 30.07 in. Hg (1018 hPa)
ob: KDLN 252153Z AUTO VRB03KT 10SM CLR 16/M07 A3007 RMK AO2 SLP165 T01611072
cycle: 22

Station Type Date Time Source
KDLN TAF UTC NOAA

Error!

Example: see airport list